Terminal Aerodrome Forecast
Issued by NWS

Home | Current Version | Previous Version | Text Only | Print | Product List | Glossary On
Versions: 1 2 3 4 5 6 7 8 9 10 11 12 13 14 15 16 17 18
000
FTUS44 KLZK 272300
TAFHRO
TAF
KHRO 272340Z 2800/2824 14004KT P6SM VCTS SCT040CB BKN250
     FM280300 14004KT P6SM SCT250
      TEMPO 2810/2814 5SM BR
     FM281400 15007KT P6SM SCT035 BKN250=

USA.gov is the U.S. government's official web portal to all federal, state and local government web resources and services.